sensor_id;sensor_type;location;lat;lon;timestamp;P1;durP1;ratioP1;P2;durP2;ratioP2
35056;SDS011;21241;51.828;19.574;2023-09-07T00:01:52;8.40;;;7.90;;
35056;SDS011;21241;51.828;19.574;2023-09-07T00:04:20;8.90;;;8.20;;
35056;SDS011;21241;51.828;19.574;2023-09-07T00:06:51;8.50;;;7.90;;
35056;SDS011;21241;51.828;19.574;2023-09-07T00:09:18;8.00;;;7.40;;
35056;SDS011;21241;51.828;19.574;2023-09-07T00:11:49;8.20;;;7.60;;
35056;SDS011;21241;51.828;19.574;2023-09-07T00:14:17;8.90;;;8.30;;
35056;SDS011;21241;51.828;19.574;2023-09-07T00:16:44;8.40;;;7.60;;
35056;SDS011;21241;51.828;19.574;2023-09-07T00:19:12;8.70;;;8.10;;
35056;SDS011;21241;51.828;19.574;2023-09-07T00:21:40;8.20;;;7.60;;
35056;SDS011;21241;51.828;19.574;2023-09-07T00:24:08;8.90;;;8.20;;
35056;SDS011;21241;51.828;19.574;2023-09-07T00:26:35;8.80;;;8.10;;
35056;SDS011;21241;51.828;19.574;2023-09-07T00:29:03;9.60;;;8.80;;
35056;SDS011;21241;51.828;19.574;2023-09-07T00:31:31;10.30;;;9.60;;
35056;SDS011;21241;51.828;19.574;2023-09-07T00:33:59;9.80;;;9.10;;
35056;SDS011;21241;51.828;19.574;2023-09-07T00:36:27;9.40;;;8.60;;
35056;SDS011;21241;51.828;19.574;2023-09-07T00:38:54;9.60;;;8.90;;
35056;SDS011;21241;51.828;19.574;2023-09-07T00:41:22;8.50;;;7.90;;
35056;SDS011;21241;51.828;19.574;2023-09-07T00:43:49;8.50;;;7.90;;
35056;SDS011;21241;51.828;19.574;2023-09-07T00:46:18;8.20;;;7.50;;
35056;SDS011;21241;51.828;19.574;2023-09-07T00:48:45;8.60;;;8.00;;
35056;SDS011;21241;51.828;19.574;2023-09-07T00:51:14;8.60;;;8.00;;
35056;SDS011;21241;51.828;19.574;2023-09-07T00:53:41;8.80;;;8.20;;
35056;SDS011;21241;51.828;19.574;2023-09-07T00:56:10;8.50;;;7.80;;
35056;SDS011;21241;51.828;19.574;2023-09-07T00:58:39;8.70;;;8.00;;
35056;SDS011;21241;51.828;19.574;2023-09-07T01:01:07;8.90;;;8.10;;
35056;SDS011;21241;51.828;19.574;2023-09-07T01:03:35;8.80;;;8.10;;
35056;SDS011;21241;51.828;19.574;2023-09-07T01:06:07;8.60;;;8.00;;
35056;SDS011;21241;51.828;19.574;2023-09-07T01:08:39;8.60;;;7.90;;
35056;SDS011;21241;51.828;19.574;2023-09-07T01:11:13;8.50;;;7.70;;
35056;SDS011;21241;51.828;19.574;2023-09-07T01:13:42;8.90;;;8.20;;
35056;SDS011;21241;51.828;19.574;2023-09-07T01:16:10;8.30;;;7.70;;
35056;SDS011;21241;51.828;19.574;2023-09-07T01:18:39;8.50;;;7.90;;
35056;SDS011;21241;51.828;19.574;2023-09-07T01:21:08;7.90;;;7.20;;
35056;SDS011;21241;51.828;19.574;2023-09-07T01:23:40;8.40;;;7.80;;
35056;SDS011;21241;51.828;19.574;2023-09-07T01:26:08;8.20;;;7.50;;
35056;SDS011;21241;51.828;19.574;2023-09-07T01:28:36;8.50;;;7.90;;
35056;SDS011;21241;51.828;19.574;2023-09-07T01:31:07;8.60;;;7.90;;
35056;SDS011;21241;51.828;19.574;2023-09-07T01:33:35;8.30;;;7.60;;
35056;SDS011;21241;51.828;19.574;2023-09-07T01:36:02;8.50;;;7.70;;
35056;SDS011;21241;51.828;19.574;2023-09-07T01:38:30;8.30;;;7.60;;
35056;SDS011;21241;51.828;19.574;2023-09-07T01:40:58;8.90;;;8.10;;
35056;SDS011;21241;51.828;19.574;2023-09-07T01:43:26;9.00;;;7.70;;
35056;SDS011;21241;51.828;19.574;2023-09-07T01:45:54;8.50;;;7.90;;
35056;SDS011;21241;51.828;19.574;2023-09-07T01:48:22;9.40;;;8.60;;
35056;SDS011;21241;51.828;19.574;2023-09-07T01:50:53;8.30;;;7.70;;
35056;SDS011;21241;51.828;19.574;2023-09-07T01:53:21;8.20;;;7.60;;
35056;SDS011;21241;51.828;19.574;2023-09-07T01:55:53;8.50;;;7.90;;
35056;SDS011;21241;51.828;19.574;2023-09-07T01:58:21;8.10;;;7.50;;
35056;SDS011;21241;51.828;19.574;2023-09-07T02:00:49;8.80;;;8.10;;
35056;SDS011;21241;51.828;19.574;2023-09-07T02:03:18;9.00;;;8.20;;
35056;SDS011;21241;51.828;19.574;2023-09-07T02:05:46;8.40;;;7.70;;
35056;SDS011;21241;51.828;19.574;2023-09-07T02:08:13;8.70;;;7.80;;
35056;SDS011;21241;51.828;19.574;2023-09-07T02:10:41;8.50;;;7.90;;
35056;SDS011;21241;51.828;19.574;2023-09-07T02:13:09;7.40;;;6.90;;
35056;SDS011;21241;51.828;19.574;2023-09-07T02:15:38;8.90;;;8.20;;
35056;SDS011;21241;51.828;19.574;2023-09-07T02:18:07;7.90;;;7.30;;
35056;SDS011;21241;51.828;19.574;2023-09-07T02:20:34;8.20;;;7.60;;
35056;SDS011;21241;51.828;19.574;2023-09-07T02:23:02;8.80;;;8.10;;
35056;SDS011;21241;51.828;19.574;2023-09-07T02:25:30;9.30;;;8.60;;
35056;SDS011;21241;51.828;19.574;2023-09-07T02:27:58;8.20;;;7.60;;
35056;SDS011;21241;51.828;19.574;2023-09-07T02:30:27;9.40;;;8.60;;
35056;SDS011;21241;51.828;19.574;2023-09-07T02:32:55;9.80;;;8.80;;
35056;SDS011;21241;51.828;19.574;2023-09-07T02:35:24;8.10;;;7.50;;
35056;SDS011;21241;51.828;19.574;2023-09-07T02:37:52;8.80;;;8.00;;
35056;SDS011;21241;51.828;19.574;2023-09-07T02:40:19;9.70;;;8.90;;
35056;SDS011;21241;51.828;19.574;2023-09-07T02:42:48;9.10;;;8.40;;
35056;SDS011;21241;51.828;19.574;2023-09-07T02:45:15;10.00;;;9.10;;
35056;SDS011;21241;51.828;19.574;2023-09-07T02:47:43;10.70;;;9.60;;
35056;SDS011;21241;51.828;19.574;2023-09-07T02:50:11;9.90;;;9.00;;
35056;SDS011;21241;51.828;19.574;2023-09-07T02:52:39;9.70;;;8.90;;
35056;SDS011;21241;51.828;19.574;2023-09-07T02:55:07;9.70;;;9.00;;
35056;SDS011;21241;51.828;19.574;2023-09-07T02:57:35;9.90;;;9.10;;
35056;SDS011;21241;51.828;19.574;2023-09-07T03:00:03;9.80;;;9.10;;
35056;SDS011;21241;51.828;19.574;2023-09-07T03:02:38;9.70;;;9.00;;
35056;SDS011;21241;51.828;19.574;2023-09-07T03:05:07;10.00;;;9.20;;
35056;SDS011;21241;51.828;19.574;2023-09-07T03:07:35;9.30;;;8.70;;
35056;SDS011;21241;51.828;19.574;2023-09-07T03:10:03;9.80;;;9.00;;
35056;SDS011;21241;51.828;19.574;2023-09-07T03:12:31;9.00;;;8.30;;
35056;SDS011;21241;51.828;19.574;2023-09-07T03:14:59;9.60;;;8.90;;
35056;SDS011;21241;51.828;19.574;2023-09-07T03:17:31;9.10;;;8.50;;
35056;SDS011;21241;51.828;19.574;2023-09-07T03:19:59;8.90;;;8.20;;
35056;SDS011;21241;51.828;19.574;2023-09-07T03:22:28;9.50;;;8.70;;
35056;SDS011;21241;51.828;19.574;2023-09-07T03:24:57;9.30;;;8.50;;
35056;SDS011;21241;51.828;19.574;2023-09-07T03:27:25;9.60;;;8.90;;
35056;SDS011;21241;51.828;19.574;2023-09-07T03:29:53;9.40;;;8.50;;
35056;SDS011;21241;51.828;19.574;2023-09-07T03:32:21;10.00;;;9.20;;
35056;SDS011;21241;51.828;19.574;2023-09-07T03:34:49;9.80;;;9.00;;
35056;SDS011;21241;51.828;19.574;2023-09-07T03:37:17;9.70;;;9.00;;
35056;SDS011;21241;51.828;19.574;2023-09-07T03:39:45;10.30;;;9.60;;
35056;SDS011;21241;51.828;19.574;2023-09-07T03:42:12;10.10;;;9.30;;
35056;SDS011;21241;51.828;19.574;2023-09-07T03:44:40;11.10;;;10.10;;
35056;SDS011;21241;51.828;19.574;2023-09-07T03:47:08;9.90;;;9.10;;
35056;SDS011;21241;51.828;19.574;2023-09-07T03:49:37;11.10;;;10.20;;
35056;SDS011;21241;51.828;19.574;2023-09-07T03:52:05;10.20;;;9.50;;
35056;SDS011;21241;51.828;19.574;2023-09-07T03:54:33;10.80;;;9.90;;
35056;SDS011;21241;51.828;19.574;2023-09-07T03:57:01;10.20;;;9.40;;
35056;SDS011;21241;51.828;19.574;2023-09-07T03:59:30;9.70;;;9.00;;
35056;SDS011;21241;51.828;19.574;2023-09-07T04:01:58;10.30;;;9.50;;
35056;SDS011;21241;51.828;19.574;2023-09-07T04:04:27;10.40;;;9.60;;
35056;SDS011;21241;51.828;19.574;2023-09-07T04:06:54;10.30;;;9.50;;
35056;SDS011;21241;51.828;19.574;2023-09-07T04:09:22;10.10;;;9.30;;
35056;SDS011;21241;51.828;19.574;2023-09-07T04:11:50;10.20;;;9.50;;
35056;SDS011;21241;51.828;19.574;2023-09-07T04:14:18;9.60;;;8.90;;
35056;SDS011;21241;51.828;19.574;2023-09-07T04:16:45;10.20;;;9.50;;
35056;SDS011;21241;51.828;19.574;2023-09-07T04:19:13;9.90;;;9.10;;
35056;SDS011;21241;51.828;19.574;2023-09-07T04:21:41;10.60;;;9.80;;
35056;SDS011;21241;51.828;19.574;2023-09-07T04:24:08;10.10;;;9.20;;
35056;SDS011;21241;51.828;19.574;2023-09-07T04:26:37;10.70;;;9.70;;
35056;SDS011;21241;51.828;19.574;2023-09-07T04:29:06;11.30;;;10.30;;
35056;SDS011;21241;51.828;19.574;2023-09-07T04:31:34;10.20;;;9.50;;
35056;SDS011;21241;51.828;19.574;2023-09-07T04:34:03;10.60;;;9.80;;
35056;SDS011;21241;51.828;19.574;2023-09-07T04:36:30;10.90;;;10.10;;
35056;SDS011;21241;51.828;19.574;2023-09-07T04:38:58;10.60;;;9.80;;
35056;SDS011;21241;51.828;19.574;2023-09-07T04:41:26;11.30;;;10.30;;
35056;SDS011;21241;51.828;19.574;2023-09-07T04:43:55;13.60;;;10.00;;
35056;SDS011;21241;51.828;19.574;2023-09-07T04:46:22;10.80;;;9.90;;
35056;SDS011;21241;51.828;19.574;2023-09-07T04:48:51;11.30;;;10.50;;
35056;SDS011;21241;51.828;19.574;2023-09-07T04:51:19;11.70;;;10.70;;
35056;SDS011;21241;51.828;19.574;2023-09-07T04:53:48;12.20;;;11.10;;
35056;SDS011;21241;51.828;19.574;2023-09-07T04:56:15;10.70;;;9.90;;
35056;SDS011;21241;51.828;19.574;2023-09-07T04:58:44;11.00;;;10.10;;
35056;SDS011;21241;51.828;19.574;2023-09-07T05:01:12;10.50;;;9.80;;
35056;SDS011;21241;51.828;19.574;2023-09-07T05:03:40;11.30;;;10.50;;
35056;SDS011;21241;51.828;19.574;2023-09-07T05:06:09;13.50;;;11.00;;
35056;SDS011;21241;51.828;19.574;2023-09-07T05:08:36;11.30;;;10.50;;
35056;SDS011;21241;51.828;19.574;2023-09-07T05:11:04;10.40;;;9.60;;
35056;SDS011;21241;51.828;19.574;2023-09-07T05:13:33;21.20;;;19.20;;
35056;SDS011;21241;51.828;19.574;2023-09-07T05:16:02;18.60;;;17.00;;
35056;SDS011;21241;51.828;19.574;2023-09-07T05:18:30;12.10;;;11.10;;
35056;SDS011;21241;51.828;19.574;2023-09-07T05:20:58;11.50;;;10.60;;
35056;SDS011;21241;51.828;19.574;2023-09-07T05:23:26;10.80;;;10.00;;
35056;SDS011;21241;51.828;19.574;2023-09-07T05:25:55;10.40;;;9.60;;
35056;SDS011;21241;51.828;19.574;2023-09-07T05:28:24;10.30;;;9.50;;
35056;SDS011;21241;51.828;19.574;2023-09-07T05:30:54;9.70;;;9.00;;
35056;SDS011;21241;51.828;19.574;2023-09-07T05:33:22;10.10;;;9.40;;
35056;SDS011;21241;51.828;19.574;2023-09-07T05:35:50;10.20;;;9.30;;
35056;SDS011;21241;51.828;19.574;2023-09-07T05:38:18;10.90;;;9.90;;
35056;SDS011;21241;51.828;19.574;2023-09-07T05:40:46;11.30;;;9.90;;
35056;SDS011;21241;51.828;19.574;2023-09-07T05:43:18;10.70;;;9.70;;
35056;SDS011;21241;51.828;19.574;2023-09-07T05:45:46;9.70;;;8.90;;
35056;SDS011;21241;51.828;19.574;2023-09-07T05:48:14;9.90;;;9.00;;
35056;SDS011;21241;51.828;19.574;2023-09-07T05:50:45;9.70;;;8.90;;
35056;SDS011;21241;51.828;19.574;2023-09-07T05:53:13;9.90;;;9.10;;
35056;SDS011;21241;51.828;19.574;2023-09-07T05:55:41;9.90;;;9.10;;
35056;SDS011;21241;51.828;19.574;2023-09-07T05:58:09;9.50;;;8.80;;
35056;SDS011;21241;51.828;19.574;2023-09-07T06:00:40;8.40;;;7.80;;
35056;SDS011;21241;51.828;19.574;2023-09-07T06:03:08;8.90;;;8.00;;
35056;SDS011;21241;51.828;19.574;2023-09-07T06:05:37;8.40;;;7.60;;
35056;SDS011;21241;51.828;19.574;2023-09-07T06:08:07;9.30;;;8.30;;
35056;SDS011;21241;51.828;19.574;2023-09-07T06:10:35;9.50;;;8.80;;
35056;SDS011;21241;51.828;19.574;2023-09-07T06:13:04;9.40;;;8.50;;
35056;SDS011;21241;51.828;19.574;2023-09-07T06:15:32;9.80;;;8.50;;
35056;SDS011;21241;51.828;19.574;2023-09-07T06:18:00;9.20;;;8.30;;
35056;SDS011;21241;51.828;19.574;2023-09-07T06:20:28;10.50;;;8.60;;
35056;SDS011;21241;51.828;19.574;2023-09-07T06:22:58;13.60;;;8.10;;
35056;SDS011;21241;51.828;19.574;2023-09-07T06:25:25;10.40;;;8.20;;
35056;SDS011;21241;51.828;19.574;2023-09-07T06:27:55;8.40;;;7.30;;
35056;SDS011;21241;51.828;19.574;2023-09-07T06:30:23;8.60;;;7.40;;
35056;SDS011;21241;51.828;19.574;2023-09-07T06:32:51;12.30;;;8.60;;
35056;SDS011;21241;51.828;19.574;2023-09-07T06:35:21;8.90;;;7.20;;
35056;SDS011;21241;51.828;19.574;2023-09-07T06:37:49;7.60;;;6.70;;
35056;SDS011;21241;51.828;19.574;2023-09-07T06:40:20;7.90;;;7.00;;
35056;SDS011;21241;51.828;19.574;2023-09-07T06:42:52;7.80;;;6.80;;
35056;SDS011;21241;51.828;19.574;2023-09-07T06:45:22;7.20;;;6.50;;
35056;SDS011;21241;51.828;19.574;2023-09-07T06:47:51;6.70;;;6.10;;
35056;SDS011;21241;51.828;19.574;2023-09-07T06:50:22;5.80;;;5.40;;
35056;SDS011;21241;51.828;19.574;2023-09-07T06:52:50;8.60;;;6.30;;
35056;SDS011;21241;51.828;19.574;2023-09-07T06:55:19;6.10;;;5.60;;
35056;SDS011;21241;51.828;19.574;2023-09-07T06:57:48;7.00;;;6.30;;
35056;SDS011;21241;51.828;19.574;2023-09-07T07:00:17;6.60;;;6.00;;
35056;SDS011;21241;51.828;19.574;2023-09-07T07:02:45;8.50;;;6.30;;
35056;SDS011;21241;51.828;19.574;2023-09-07T07:05:14;6.90;;;6.20;;
35056;SDS011;21241;51.828;19.574;2023-09-07T07:07:42;6.10;;;5.50;;
35056;SDS011;21241;51.828;19.574;2023-09-07T07:10:10;7.50;;;6.70;;
35056;SDS011;21241;51.828;19.574;2023-09-07T07:12:40;6.10;;;5.60;;
35056;SDS011;21241;51.828;19.574;2023-09-07T07:15:08;8.10;;;6.20;;
35056;SDS011;21241;51.828;19.574;2023-09-07T07:17:36;6.40;;;5.90;;
35056;SDS011;21241;51.828;19.574;2023-09-07T07:20:05;6.40;;;5.90;;
35056;SDS011;21241;51.828;19.574;2023-09-07T07:22:33;6.40;;;5.80;;
35056;SDS011;21241;51.828;19.574;2023-09-07T07:25:03;5.60;;;5.10;;
35056;SDS011;21241;51.828;19.574;2023-09-07T07:27:33;6.30;;;5.50;;
35056;SDS011;21241;51.828;19.574;2023-09-07T07:30:02;6.50;;;5.80;;
35056;SDS011;21241;51.828;19.574;2023-09-07T07:32:31;5.60;;;5.10;;
35056;SDS011;21241;51.828;19.574;2023-09-07T07:34:59;6.10;;;5.60;;
35056;SDS011;21241;51.828;19.574;2023-09-07T07:37:27;5.20;;;4.80;;
35056;SDS011;21241;51.828;19.574;2023-09-07T07:39:55;6.30;;;5.40;;
35056;SDS011;21241;51.828;19.574;2023-09-07T07:42:24;5.40;;;4.90;;
35056;SDS011;21241;51.828;19.574;2023-09-07T07:44:52;5.30;;;4.90;;
35056;SDS011;21241;51.828;19.574;2023-09-07T07:47:20;5.60;;;5.10;;
35056;SDS011;21241;51.828;19.574;2023-09-07T07:49:47;5.70;;;5.20;;
35056;SDS011;21241;51.828;19.574;2023-09-07T07:52:15;5.60;;;5.10;;
35056;SDS011;21241;51.828;19.574;2023-09-07T07:54:43;5.90;;;5.30;;
35056;SDS011;21241;51.828;19.574;2023-09-07T07:57:11;5.60;;;5.10;;
35056;SDS011;21241;51.828;19.574;2023-09-07T07:59:39;9.00;;;6.10;;
35056;SDS011;21241;51.828;19.574;2023-09-07T08:02:07;5.50;;;5.10;;
35056;SDS011;21241;51.828;19.574;2023-09-07T08:04:35;6.30;;;5.80;;
35056;SDS011;21241;51.828;19.574;2023-09-07T08:07:04;7.10;;;6.40;;
35056;SDS011;21241;51.828;19.574;2023-09-07T08:09:33;6.30;;;5.70;;
35056;SDS011;21241;51.828;19.574;2023-09-07T08:12:02;6.00;;;5.50;;
35056;SDS011;21241;51.828;19.574;2023-09-07T08:14:30;6.30;;;5.80;;
35056;SDS011;21241;51.828;19.574;2023-09-07T08:16:58;6.70;;;6.10;;
35056;SDS011;21241;51.828;19.574;2023-09-07T08:19:26;7.90;;;6.50;;
35056;SDS011;21241;51.828;19.574;2023-09-07T08:21:57;6.30;;;5.80;;
35056;SDS011;21241;51.828;19.574;2023-09-07T08:24:25;6.10;;;5.50;;
35056;SDS011;21241;51.828;19.574;2023-09-07T08:26:53;5.90;;;5.40;;
35056;SDS011;21241;51.828;19.574;2023-09-07T08:29:23;5.50;;;5.00;;
35056;SDS011;21241;51.828;19.574;2023-09-07T08:31:54;6.20;;;5.30;;
35056;SDS011;21241;51.828;19.574;2023-09-07T08:34:25;5.60;;;5.20;;
35056;SDS011;21241;51.828;19.574;2023-09-07T08:36:53;5.40;;;5.00;;
35056;SDS011;21241;51.828;19.574;2023-09-07T08:39:22;6.00;;;5.50;;
35056;SDS011;21241;51.828;19.574;2023-09-07T08:41:50;5.70;;;5.20;;
35056;SDS011;21241;51.828;19.574;2023-09-07T08:44:28;8.60;;;5.50;;
35056;SDS011;21241;51.828;19.574;2023-09-07T08:46:56;5.60;;;5.20;;
35056;SDS011;21241;51.828;19.574;2023-09-07T08:49:24;5.70;;;5.30;;
35056;SDS011;21241;51.828;19.574;2023-09-07T08:51:53;5.30;;;4.80;;
35056;SDS011;21241;51.828;19.574;2023-09-07T08:54:21;5.60;;;5.10;;
35056;SDS011;21241;51.828;19.574;2023-09-07T08:56:49;5.40;;;5.00;;
35056;SDS011;21241;51.828;19.574;2023-09-07T08:59:18;5.30;;;4.80;;
35056;SDS011;21241;51.828;19.574;2023-09-07T09:01:46;6.40;;;5.20;;
35056;SDS011;21241;51.828;19.574;2023-09-07T09:04:14;5.30;;;4.80;;
35056;SDS011;21241;51.828;19.574;2023-09-07T09:06:42;5.10;;;4.40;;
35056;SDS011;21241;51.828;19.574;2023-09-07T09:09:10;6.90;;;5.20;;
35056;SDS011;21241;51.828;19.574;2023-09-07T09:11:41;5.30;;;4.80;;
35056;SDS011;21241;51.828;19.574;2023-09-07T09:14:08;5.00;;;4.50;;
35056;SDS011;21241;51.828;19.574;2023-09-07T09:16:36;5.80;;;5.40;;
35056;SDS011;21241;51.828;19.574;2023-09-07T09:19:04;5.40;;;4.90;;
35056;SDS011;21241;51.828;19.574;2023-09-07T09:21:32;5.10;;;4.60;;
35056;SDS011;21241;51.828;19.574;2023-09-07T09:23:59;5.20;;;4.70;;
35056;SDS011;21241;51.828;19.574;2023-09-07T09:26:28;4.90;;;4.50;;
35056;SDS011;21241;51.828;19.574;2023-09-07T09:28:57;5.30;;;4.80;;
35056;SDS011;21241;51.828;19.574;2023-09-07T09:31:27;4.60;;;4.30;;
35056;SDS011;21241;51.828;19.574;2023-09-07T09:33:56;5.20;;;4.90;;
35056;SDS011;21241;51.828;19.574;2023-09-07T09:36:32;5.00;;;4.50;;
35056;SDS011;21241;51.828;19.574;2023-09-07T09:39:00;5.00;;;4.60;;
35056;SDS011;21241;51.828;19.574;2023-09-07T09:41:28;5.00;;;4.70;;
35056;SDS011;21241;51.828;19.574;2023-09-07T09:43:57;5.60;;;5.10;;
35056;SDS011;21241;51.828;19.574;2023-09-07T09:46:25;4.90;;;4.50;;
35056;SDS011;21241;51.828;19.574;2023-09-07T09:48:54;5.50;;;5.10;;
35056;SDS011;21241;51.828;19.574;2023-09-07T09:51:22;4.90;;;4.30;;
35056;SDS011;21241;51.828;19.574;2023-09-07T09:53:51;4.80;;;4.40;;
35056;SDS011;21241;51.828;19.574;2023-09-07T09:56:21;5.30;;;4.80;;
35056;SDS011;21241;51.828;19.574;2023-09-07T09:58:49;5.90;;;4.50;;
35056;SDS011;21241;51.828;19.574;2023-09-07T10:01:16;4.70;;;4.40;;
35056;SDS011;21241;51.828;19.574;2023-09-07T10:03:45;4.50;;;4.10;;
35056;SDS011;21241;51.828;19.574;2023-09-07T10:06:24;5.00;;;4.50;;
35056;SDS011;21241;51.828;19.574;2023-09-07T10:08:53;7.40;;;5.00;;
35056;SDS011;21241;51.828;19.574;2023-09-07T10:11:33;4.50;;;4.20;;
35056;SDS011;21241;51.828;19.574;2023-09-07T10:14:02;5.80;;;4.30;;
35056;SDS011;21241;51.828;19.574;2023-09-07T10:16:46;6.30;;;4.40;;
35056;SDS011;21241;51.828;19.574;2023-09-07T10:21:42;4.60;;;4.20;;
35056;SDS011;21241;51.828;19.574;2023-09-07T10:24:11;4.20;;;3.90;;
35056;SDS011;21241;51.828;19.574;2023-09-07T10:26:38;4.80;;;4.20;;
35056;SDS011;21241;51.828;19.574;2023-09-07T10:29:06;4.60;;;4.30;;
35056;SDS011;21241;51.828;19.574;2023-09-07T10:31:34;5.60;;;4.70;;
35056;SDS011;21241;51.828;19.574;2023-09-07T10:34:20;6.70;;;5.50;;
35056;SDS011;21241;51.828;19.574;2023-09-07T10:36:55;4.70;;;4.40;;
35056;SDS011;21241;51.828;19.574;2023-09-07T10:39:23;10.50;;;5.60;;
35056;SDS011;21241;51.828;19.574;2023-09-07T10:41:50;6.70;;;4.60;;
35056;SDS011;21241;51.828;19.574;2023-09-07T10:44:24;4.70;;;4.30;;
35056;SDS011;21241;51.828;19.574;2023-09-07T10:46:52;4.70;;;4.30;;
35056;SDS011;21241;51.828;19.574;2023-09-07T10:49:20;6.10;;;4.30;;
35056;SDS011;21241;51.828;19.574;2023-09-07T10:51:48;5.40;;;4.70;;
35056;SDS011;21241;51.828;19.574;2023-09-07T10:56:44;4.80;;;4.40;;
35056;SDS011;21241;51.828;19.574;2023-09-07T10:59:15;5.00;;;4.50;;
35056;SDS011;21241;51.828;19.574;2023-09-07T11:01:43;4.40;;;4.00;;
35056;SDS011;21241;51.828;19.574;2023-09-07T11:04:11;4.60;;;4.20;;
35056;SDS011;21241;51.828;19.574;2023-09-07T11:06:39;4.50;;;4.10;;
35056;SDS011;21241;51.828;19.574;2023-09-07T11:09:08;4.70;;;4.30;;
35056;SDS011;21241;51.828;19.574;2023-09-07T11:11:38;4.10;;;3.90;;
35056;SDS011;21241;51.828;19.574;2023-09-07T11:14:06;5.00;;;4.60;;
35056;SDS011;21241;51.828;19.574;2023-09-07T11:16:34;5.10;;;4.60;;
35056;SDS011;21241;51.828;19.574;2023-09-07T11:19:06;4.40;;;4.00;;
35056;SDS011;21241;51.828;19.574;2023-09-07T11:21:34;4.80;;;4.40;;
35056;SDS011;21241;51.828;19.574;2023-09-07T11:24:03;4.60;;;4.20;;
35056;SDS011;21241;51.828;19.574;2023-09-07T11:26:41;5.60;;;4.20;;
35056;SDS011;21241;51.828;19.574;2023-09-07T11:29:09;4.50;;;4.10;;
35056;SDS011;21241;51.828;19.574;2023-09-07T11:31:37;5.00;;;4.00;;
35056;SDS011;21241;51.828;19.574;2023-09-07T11:34:08;5.00;;;4.60;;
35056;SDS011;21241;51.828;19.574;2023-09-07T11:36:36;4.60;;;4.20;;
35056;SDS011;21241;51.828;19.574;2023-09-07T11:39:04;4.40;;;4.00;;
35056;SDS011;21241;51.828;19.574;2023-09-07T11:41:41;4.90;;;4.50;;
35056;SDS011;21241;51.828;19.574;2023-09-07T11:44:10;4.70;;;4.30;;
35056;SDS011;21241;51.828;19.574;2023-09-07T11:46:39;4.90;;;4.50;;
35056;SDS011;21241;51.828;19.574;2023-09-07T11:49:07;4.70;;;4.40;;
35056;SDS011;21241;51.828;19.574;2023-09-07T11:51:37;4.90;;;4.50;;
35056;SDS011;21241;51.828;19.574;2023-09-07T11:54:05;4.40;;;4.00;;
35056;SDS011;21241;51.828;19.574;2023-09-07T11:56:33;4.40;;;4.10;;
35056;SDS011;21241;51.828;19.574;2023-09-07T11:59:05;6.60;;;4.70;;
35056;SDS011;21241;51.828;19.574;2023-09-07T12:01:33;4.50;;;4.10;;
35056;SDS011;21241;51.828;19.574;2023-09-07T12:04:01;4.50;;;4.10;;
35056;SDS011;21241;51.828;19.574;2023-09-07T12:06:32;4.60;;;4.20;;
35056;SDS011;21241;51.828;19.574;2023-09-07T12:09:00;4.40;;;4.10;;
35056;SDS011;21241;51.828;19.574;2023-09-07T12:11:29;4.80;;;4.40;;
35056;SDS011;21241;51.828;19.574;2023-09-07T12:13:58;4.60;;;4.30;;
35056;SDS011;21241;51.828;19.574;2023-09-07T12:16:27;4.90;;;4.10;;
35056;SDS011;21241;51.828;19.574;2023-09-07T12:18:55;5.00;;;4.40;;
35056;SDS011;21241;51.828;19.574;2023-09-07T12:21:23;4.90;;;4.60;;
35056;SDS011;21241;51.828;19.574;2023-09-07T12:23:50;4.10;;;3.80;;
35056;SDS011;21241;51.828;19.574;2023-09-07T12:26:19;4.80;;;4.30;;
35056;SDS011;21241;51.828;19.574;2023-09-07T12:28:48;4.90;;;4.40;;
35056;SDS011;21241;51.828;19.574;2023-09-07T12:31:16;5.90;;;4.50;;
35056;SDS011;21241;51.828;19.574;2023-09-07T12:33:44;4.50;;;4.20;;
35056;SDS011;21241;51.828;19.574;2023-09-07T12:36:12;4.70;;;4.30;;
35056;SDS011;21241;51.828;19.574;2023-09-07T12:38:40;4.70;;;4.30;;
35056;SDS011;21241;51.828;19.574;2023-09-07T12:41:08;4.90;;;4.50;;
35056;SDS011;21241;51.828;19.574;2023-09-07T12:43:35;5.10;;;4.70;;
35056;SDS011;21241;51.828;19.574;2023-09-07T12:46:03;4.70;;;4.30;;
35056;SDS011;21241;51.828;19.574;2023-09-07T12:48:31;5.40;;;4.90;;
35056;SDS011;21241;51.828;19.574;2023-09-07T12:50:59;5.10;;;4.60;;
35056;SDS011;21241;51.828;19.574;2023-09-07T12:53:27;4.40;;;4.10;;
35056;SDS011;21241;51.828;19.574;2023-09-07T12:55:55;5.20;;;4.70;;
35056;SDS011;21241;51.828;19.574;2023-09-07T12:58:23;4.40;;;4.10;;
35056;SDS011;21241;51.828;19.574;2023-09-07T13:00:51;5.70;;;4.80;;
35056;SDS011;21241;51.828;19.574;2023-09-07T13:03:20;4.90;;;4.30;;
35056;SDS011;21241;51.828;19.574;2023-09-07T13:05:48;4.10;;;3.90;;
35056;SDS011;21241;51.828;19.574;2023-09-07T13:08:16;5.40;;;5.00;;
35056;SDS011;21241;51.828;19.574;2023-09-07T13:10:43;4.80;;;4.40;;
35056;SDS011;21241;51.828;19.574;2023-09-07T13:13:11;5.00;;;4.50;;
35056;SDS011;21241;51.828;19.574;2023-09-07T13:15:39;4.80;;;4.30;;
35056;SDS011;21241;51.828;19.574;2023-09-07T13:18:07;4.90;;;4.50;;
35056;SDS011;21241;51.828;19.574;2023-09-07T13:20:34;4.90;;;4.60;;
35056;SDS011;21241;51.828;19.574;2023-09-07T13:23:02;5.70;;;4.90;;
35056;SDS011;21241;51.828;19.574;2023-09-07T13:25:30;4.90;;;4.50;;
35056;SDS011;21241;51.828;19.574;2023-09-07T13:27:58;4.60;;;4.20;;
35056;SDS011;21241;51.828;19.574;2023-09-07T13:30:28;5.00;;;4.60;;
35056;SDS011;21241;51.828;19.574;2023-09-07T13:32:56;4.50;;;4.20;;
35056;SDS011;21241;51.828;19.574;2023-09-07T13:35:24;5.30;;;4.80;;
35056;SDS011;21241;51.828;19.574;2023-09-07T13:37:51;5.30;;;4.80;;
35056;SDS011;21241;51.828;19.574;2023-09-07T13:40:19;5.60;;;5.20;;
35056;SDS011;21241;51.828;19.574;2023-09-07T13:42:51;4.80;;;4.40;;
35056;SDS011;21241;51.828;19.574;2023-09-07T13:45:19;5.10;;;4.70;;
35056;SDS011;21241;51.828;19.574;2023-09-07T13:47:48;5.70;;;5.20;;
35056;SDS011;21241;51.828;19.574;2023-09-07T13:50:16;5.20;;;4.70;;
35056;SDS011;21241;51.828;19.574;2023-09-07T13:52:44;5.30;;;4.80;;
35056;SDS011;21241;51.828;19.574;2023-09-07T13:55:12;4.90;;;4.50;;
35056;SDS011;21241;51.828;19.574;2023-09-07T13:57:40;5.50;;;5.10;;
35056;SDS011;21241;51.828;19.574;2023-09-07T14:00:08;5.20;;;4.80;;
35056;SDS011;21241;51.828;19.574;2023-09-07T14:02:36;5.00;;;4.70;;
35056;SDS011;21241;51.828;19.574;2023-09-07T14:05:04;5.50;;;5.00;;
35056;SDS011;21241;51.828;19.574;2023-09-07T14:07:32;5.20;;;4.70;;
35056;SDS011;21241;51.828;19.574;2023-09-07T14:10:00;5.30;;;4.80;;
35056;SDS011;21241;51.828;19.574;2023-09-07T14:12:28;5.70;;;5.30;;
35056;SDS011;21241;51.828;19.574;2023-09-07T14:14:56;5.50;;;5.00;;
35056;SDS011;21241;51.828;19.574;2023-09-07T14:17:24;5.60;;;5.20;;
35056;SDS011;21241;51.828;19.574;2023-09-07T14:19:51;6.10;;;4.90;;
35056;SDS011;21241;51.828;19.574;2023-09-07T14:22:19;6.00;;;4.80;;
35056;SDS011;21241;51.828;19.574;2023-09-07T14:24:47;5.20;;;4.70;;
35056;SDS011;21241;51.828;19.574;2023-09-07T14:27:14;5.50;;;5.10;;
35056;SDS011;21241;51.828;19.574;2023-09-07T14:29:42;5.60;;;5.10;;
35056;SDS011;21241;51.828;19.574;2023-09-07T14:32:11;5.50;;;5.00;;
35056;SDS011;21241;51.828;19.574;2023-09-07T14:34:38;6.40;;;5.80;;
35056;SDS011;21241;51.828;19.574;2023-09-07T14:37:06;5.30;;;4.90;;
35056;SDS011;21241;51.828;19.574;2023-09-07T14:39:34;5.80;;;5.30;;
35056;SDS011;21241;51.828;19.574;2023-09-07T14:42:03;5.30;;;4.80;;
35056;SDS011;21241;51.828;19.574;2023-09-07T14:44:33;5.60;;;5.20;;